sensor_id;sensor_type;location;lat;lon;timestamp;P1;durP1;ratioP1;P2;durP2;ratioP2
10471;SDS011;5283;48.876;8.962;2023-10-19T00:01:23;12.20;;;8.43;;
10471;SDS011;5283;48.876;8.962;2023-10-19T00:03:54;9.27;;;8.30;;
10471;SDS011;5283;48.876;8.962;2023-10-19T00:06:22;9.03;;;8.13;;
10471;SDS011;5283;48.876;8.962;2023-10-19T00:08:49;9.17;;;8.23;;
10471;SDS011;5283;48.876;8.962;2023-10-19T00:11:18;10.20;;;8.30;;
10471;SDS011;5283;48.876;8.962;2023-10-19T00:13:48;8.80;;;7.83;;
10471;SDS011;5283;48.876;8.962;2023-10-19T00:16:20;8.40;;;7.17;;
10471;SDS011;5283;48.876;8.962;2023-10-19T00:18:55;10.33;;;7.47;;
10471;SDS011;5283;48.876;8.962;2023-10-19T00:21:25;10.33;;;7.73;;
10471;SDS011;5283;48.876;8.962;2023-10-19T00:23:55;9.17;;;8.07;;
10471;SDS011;5283;48.876;8.962;2023-10-19T00:26:26;8.27;;;7.27;;
10471;SDS011;5283;48.876;8.962;2023-10-19T00:28:56;10.20;;;7.97;;
10471;SDS011;5283;48.876;8.962;2023-10-19T00:31:24;9.93;;;8.13;;
10471;SDS011;5283;48.876;8.962;2023-10-19T00:33:53;11.13;;;8.03;;
10471;SDS011;5283;48.876;8.962;2023-10-19T00:36:21;11.20;;;8.20;;
10471;SDS011;5283;48.876;8.962;2023-10-19T00:38:49;9.90;;;7.70;;
10471;SDS011;5283;48.876;8.962;2023-10-19T00:41:17;10.27;;;7.47;;
10471;SDS011;5283;48.876;8.962;2023-10-19T00:43:59;8.33;;;7.43;;
10471;SDS011;5283;48.876;8.962;2023-10-19T00:46:30;9.07;;;7.73;;
10471;SDS011;5283;48.876;8.962;2023-10-19T00:49:02;10.27;;;7.80;;
10471;SDS011;5283;48.876;8.962;2023-10-19T00:51:36;10.97;;;8.37;;
10471;SDS011;5283;48.876;8.962;2023-10-19T00:54:12;12.23;;;8.60;;
10471;SDS011;5283;48.876;8.962;2023-10-19T00:56:42;9.53;;;7.77;;
10471;SDS011;5283;48.876;8.962;2023-10-19T00:59:18;9.43;;;7.80;;
10471;SDS011;5283;48.876;8.962;2023-10-19T01:01:52;9.77;;;7.33;;
10471;SDS011;5283;48.876;8.962;2023-10-19T01:04:21;10.27;;;7.23;;
10471;SDS011;5283;48.876;8.962;2023-10-19T01:06:57;9.33;;;6.87;;
10471;SDS011;5283;48.876;8.962;2023-10-19T01:09:27;8.23;;;7.37;;
10471;SDS011;5283;48.876;8.962;2023-10-19T01:11:54;9.80;;;7.33;;
10471;SDS011;5283;48.876;8.962;2023-10-19T01:14:24;8.70;;;6.80;;
10471;SDS011;5283;48.876;8.962;2023-10-19T01:16:54;7.73;;;6.93;;
10471;SDS011;5283;48.876;8.962;2023-10-19T01:19:24;8.63;;;6.47;;
10471;SDS011;5283;48.876;8.962;2023-10-19T01:21:53;7.63;;;6.87;;
10471;SDS011;5283;48.876;8.962;2023-10-19T01:24:26;7.30;;;6.60;;
10471;SDS011;5283;48.876;8.962;2023-10-19T01:27:06;10.10;;;6.93;;
10471;SDS011;5283;48.876;8.962;2023-10-19T01:29:36;7.30;;;6.50;;
10471;SDS011;5283;48.876;8.962;2023-10-19T01:32:07;7.07;;;6.37;;
10471;SDS011;5283;48.876;8.962;2023-10-19T01:34:38;8.03;;;6.97;;
10471;SDS011;5283;48.876;8.962;2023-10-19T01:37:04;7.27;;;6.37;;
10471;SDS011;5283;48.876;8.962;2023-10-19T01:39:32;9.27;;;7.10;;
10471;SDS011;5283;48.876;8.962;2023-10-19T01:42:01;8.13;;;6.63;;
10471;SDS011;5283;48.876;8.962;2023-10-19T01:44:31;8.97;;;7.10;;
10471;SDS011;5283;48.876;8.962;2023-10-19T01:46:58;10.87;;;7.83;;
10471;SDS011;5283;48.876;8.962;2023-10-19T01:49:26;8.03;;;7.23;;
10471;SDS011;5283;48.876;8.962;2023-10-19T01:51:56;9.50;;;7.37;;
10471;SDS011;5283;48.876;8.962;2023-10-19T01:54:23;7.83;;;6.73;;
10471;SDS011;5283;48.876;8.962;2023-10-19T01:56:54;6.57;;;5.80;;
10471;SDS011;5283;48.876;8.962;2023-10-19T01:59:25;7.83;;;6.13;;
10471;SDS011;5283;48.876;8.962;2023-10-19T02:01:54;9.80;;;8.80;;
10471;SDS011;5283;48.876;8.962;2023-10-19T02:04:21;10.87;;;8.10;;
10471;SDS011;5283;48.876;8.962;2023-10-19T02:06:48;9.13;;;6.97;;
10471;SDS011;5283;48.876;8.962;2023-10-19T02:09:16;8.60;;;6.87;;
10471;SDS011;5283;48.876;8.962;2023-10-19T02:11:55;9.20;;;8.23;;
10471;SDS011;5283;48.876;8.962;2023-10-19T02:14:23;11.90;;;8.80;;
10471;SDS011;5283;48.876;8.962;2023-10-19T02:16:52;11.83;;;10.10;;
10471;SDS011;5283;48.876;8.962;2023-10-19T02:19:23;10.93;;;9.60;;
10471;SDS011;5283;48.876;8.962;2023-10-19T02:22:01;9.57;;;8.30;;
10471;SDS011;5283;48.876;8.962;2023-10-19T02:24:38;9.93;;;7.80;;
10471;SDS011;5283;48.876;8.962;2023-10-19T02:27:07;9.27;;;7.83;;
10471;SDS011;5283;48.876;8.962;2023-10-19T02:29:36;8.93;;;7.70;;
10471;SDS011;5283;48.876;8.962;2023-10-19T02:32:04;8.07;;;7.07;;
10471;SDS011;5283;48.876;8.962;2023-10-19T02:34:32;8.17;;;7.37;;
10471;SDS011;5283;48.876;8.962;2023-10-19T02:37:00;10.27;;;8.00;;
10471;SDS011;5283;48.876;8.962;2023-10-19T02:39:28;9.10;;;7.67;;
10471;SDS011;5283;48.876;8.962;2023-10-19T02:41:54;9.27;;;7.00;;
10471;SDS011;5283;48.876;8.962;2023-10-19T02:44:22;10.77;;;8.00;;
10471;SDS011;5283;48.876;8.962;2023-10-19T02:46:50;9.23;;;7.90;;
10471;SDS011;5283;48.876;8.962;2023-10-19T02:49:20;11.27;;;8.60;;
10471;SDS011;5283;48.876;8.962;2023-10-19T02:51:49;10.00;;;8.90;;
10471;SDS011;5283;48.876;8.962;2023-10-19T02:54:18;11.10;;;8.87;;
10471;SDS011;5283;48.876;8.962;2023-10-19T02:56:54;10.83;;;8.37;;
10471;SDS011;5283;48.876;8.962;2023-10-19T02:59:25;9.87;;;8.30;;
10471;SDS011;5283;48.876;8.962;2023-10-19T03:01:55;7.90;;;6.53;;
10471;SDS011;5283;48.876;8.962;2023-10-19T03:04:44;6.43;;;5.83;;
10471;SDS011;5283;48.876;8.962;2023-10-19T03:07:11;8.10;;;6.73;;
10471;SDS011;5283;48.876;8.962;2023-10-19T03:09:39;9.87;;;7.10;;
10471;SDS011;5283;48.876;8.962;2023-10-19T03:12:05;8.07;;;7.27;;
10471;SDS011;5283;48.876;8.962;2023-10-19T03:14:36;8.83;;;6.97;;
10471;SDS011;5283;48.876;8.962;2023-10-19T03:17:03;10.97;;;8.07;;
10471;SDS011;5283;48.876;8.962;2023-10-19T03:19:31;10.93;;;8.77;;
10471;SDS011;5283;48.876;8.962;2023-10-19T03:21:58;10.17;;;7.60;;
10471;SDS011;5283;48.876;8.962;2023-10-19T03:24:30;8.63;;;6.27;;
10471;SDS011;5283;48.876;8.962;2023-10-19T03:27:03;9.90;;;6.70;;
10471;SDS011;5283;48.876;8.962;2023-10-19T03:29:43;11.73;;;6.57;;
10471;SDS011;5283;48.876;8.962;2023-10-19T03:32:26;9.23;;;6.30;;
10471;SDS011;5283;48.876;8.962;2023-10-19T03:34:53;10.83;;;6.50;;
10471;SDS011;5283;48.876;8.962;2023-10-19T03:37:26;7.67;;;6.57;;
10471;SDS011;5283;48.876;8.962;2023-10-19T03:39:56;9.87;;;6.70;;
10471;SDS011;5283;48.876;8.962;2023-10-19T03:42:23;10.07;;;6.57;;
10471;SDS011;5283;48.876;8.962;2023-10-19T03:44:58;9.30;;;6.13;;
10471;SDS011;5283;48.876;8.962;2023-10-19T03:47:28;8.37;;;6.40;;
10471;SDS011;5283;48.876;8.962;2023-10-19T03:50:01;9.90;;;7.10;;
10471;SDS011;5283;48.876;8.962;2023-10-19T03:52:48;8.90;;;6.80;;
10471;SDS011;5283;48.876;8.962;2023-10-19T03:55:16;10.27;;;6.80;;
10471;SDS011;5283;48.876;8.962;2023-10-19T03:57:49;9.23;;;6.40;;
10471;SDS011;5283;48.876;8.962;2023-10-19T04:00:21;9.53;;;6.87;;
10471;SDS011;5283;48.876;8.962;2023-10-19T04:02:52;12.00;;;7.70;;
10471;SDS011;5283;48.876;8.962;2023-10-19T04:05:21;9.17;;;7.23;;
10471;SDS011;5283;48.876;8.962;2023-10-19T04:07:49;11.23;;;7.67;;
10471;SDS011;5283;48.876;8.962;2023-10-19T04:10:21;11.80;;;7.90;;
10471;SDS011;5283;48.876;8.962;2023-10-19T04:13:00;11.73;;;8.40;;
10471;SDS011;5283;48.876;8.962;2023-10-19T04:15:28;11.30;;;7.77;;
10471;SDS011;5283;48.876;8.962;2023-10-19T04:18:02;10.93;;;7.83;;
10471;SDS011;5283;48.876;8.962;2023-10-19T04:20:37;8.43;;;6.93;;
10471;SDS011;5283;48.876;8.962;2023-10-19T04:23:17;10.13;;;6.97;;
10471;SDS011;5283;48.876;8.962;2023-10-19T04:25:44;11.60;;;7.70;;
10471;SDS011;5283;48.876;8.962;2023-10-19T04:28:12;13.10;;;6.93;;
10471;SDS011;5283;48.876;8.962;2023-10-19T04:30:46;12.60;;;7.67;;
10471;SDS011;5283;48.876;8.962;2023-10-19T04:33:14;11.47;;;8.00;;
10471;SDS011;5283;48.876;8.962;2023-10-19T04:35:43;10.27;;;8.03;;
10471;SDS011;5283;48.876;8.962;2023-10-19T04:38:10;13.37;;;9.10;;
10471;SDS011;5283;48.876;8.962;2023-10-19T04:40:37;11.77;;;8.43;;
10471;SDS011;5283;48.876;8.962;2023-10-19T04:43:04;12.77;;;8.83;;
10471;SDS011;5283;48.876;8.962;2023-10-19T04:45:31;14.03;;;9.17;;
10471;SDS011;5283;48.876;8.962;2023-10-19T04:47:58;12.13;;;9.03;;
10471;SDS011;5283;48.876;8.962;2023-10-19T04:50:25;13.13;;;9.13;;
10471;SDS011;5283;48.876;8.962;2023-10-19T04:52:51;11.73;;;8.73;;
10471;SDS011;5283;48.876;8.962;2023-10-19T04:55:18;18.17;;;9.17;;
10471;SDS011;5283;48.876;8.962;2023-10-19T04:57:45;12.97;;;8.20;;
10471;SDS011;5283;48.876;8.962;2023-10-19T05:00:12;65.27;;;10.00;;
10471;SDS011;5283;48.876;8.962;2023-10-19T05:02:41;12.17;;;8.97;;
10471;SDS011;5283;48.876;8.962;2023-10-19T05:05:08;12.83;;;8.53;;
10471;SDS011;5283;48.876;8.962;2023-10-19T05:07:35;12.33;;;8.63;;
10471;SDS011;5283;48.876;8.962;2023-10-19T05:10:02;11.63;;;8.60;;
10471;SDS011;5283;48.876;8.962;2023-10-19T05:12:29;12.40;;;8.93;;
10471;SDS011;5283;48.876;8.962;2023-10-19T05:14:55;14.27;;;10.23;;
10471;SDS011;5283;48.876;8.962;2023-10-19T05:17:22;14.80;;;10.70;;
10471;SDS011;5283;48.876;8.962;2023-10-19T05:19:49;14.40;;;10.73;;
10471;SDS011;5283;48.876;8.962;2023-10-19T05:22:16;17.00;;;10.67;;
10471;SDS011;5283;48.876;8.962;2023-10-19T05:24:43;15.40;;;10.00;;
10471;SDS011;5283;48.876;8.962;2023-10-19T05:27:10;12.50;;;9.20;;
10471;SDS011;5283;48.876;8.962;2023-10-19T05:29:39;14.23;;;9.70;;
10471;SDS011;5283;48.876;8.962;2023-10-19T05:32:06;15.33;;;11.20;;
10471;SDS011;5283;48.876;8.962;2023-10-19T05:34:35;13.83;;;10.37;;
10471;SDS011;5283;48.876;8.962;2023-10-19T05:37:03;16.13;;;11.00;;
10471;SDS011;5283;48.876;8.962;2023-10-19T05:39:31;18.20;;;13.13;;
10471;SDS011;5283;48.876;8.962;2023-10-19T05:41:59;20.80;;;13.90;;
10471;SDS011;5283;48.876;8.962;2023-10-19T05:44:30;17.03;;;11.27;;
10471;SDS011;5283;48.876;8.962;2023-10-19T05:46:57;15.87;;;11.50;;
10471;SDS011;5283;48.876;8.962;2023-10-19T05:49:24;16.03;;;12.77;;
10471;SDS011;5283;48.876;8.962;2023-10-19T05:51:51;21.00;;;13.87;;
10471;SDS011;5283;48.876;8.962;2023-10-19T05:54:18;39.77;;;17.53;;
10471;SDS011;5283;48.876;8.962;2023-10-19T05:56:45;19.27;;;14.00;;
10471;SDS011;5283;48.876;8.962;2023-10-19T05:59:12;21.13;;;14.97;;
10471;SDS011;5283;48.876;8.962;2023-10-19T06:01:39;15.87;;;11.87;;
10471;SDS011;5283;48.876;8.962;2023-10-19T06:04:07;19.20;;;13.93;;
10471;SDS011;5283;48.876;8.962;2023-10-19T06:06:34;23.27;;;16.47;;
10471;SDS011;5283;48.876;8.962;2023-10-19T06:09:02;19.77;;;15.73;;
10471;SDS011;5283;48.876;8.962;2023-10-19T06:11:30;22.73;;;15.20;;
10471;SDS011;5283;48.876;8.962;2023-10-19T06:13:58;20.13;;;14.53;;
10471;SDS011;5283;48.876;8.962;2023-10-19T06:16:26;23.20;;;17.67;;
10471;SDS011;5283;48.876;8.962;2023-10-19T06:18:54;33.40;;;22.43;;
10471;SDS011;5283;48.876;8.962;2023-10-19T06:21:21;24.00;;;17.23;;
10471;SDS011;5283;48.876;8.962;2023-10-19T06:23:48;29.10;;;19.43;;
10471;SDS011;5283;48.876;8.962;2023-10-19T06:26:16;26.27;;;18.50;;
10471;SDS011;5283;48.876;8.962;2023-10-19T06:28:43;25.10;;;19.00;;
10471;SDS011;5283;48.876;8.962;2023-10-19T06:31:10;16.70;;;12.30;;
10471;SDS011;5283;48.876;8.962;2023-10-19T06:33:37;15.50;;;11.00;;
10471;SDS011;5283;48.876;8.962;2023-10-19T06:36:07;14.63;;;11.27;;
10471;SDS011;5283;48.876;8.962;2023-10-19T06:38:35;21.97;;;14.97;;
10471;SDS011;5283;48.876;8.962;2023-10-19T06:41:09;20.37;;;15.17;;
10471;SDS011;5283;48.876;8.962;2023-10-19T06:43:40;21.00;;;13.93;;
10471;SDS011;5283;48.876;8.962;2023-10-19T06:46:08;16.90;;;11.57;;
10471;SDS011;5283;48.876;8.962;2023-10-19T06:48:37;15.67;;;11.30;;
10471;SDS011;5283;48.876;8.962;2023-10-19T06:51:05;13.47;;;10.60;;
10471;SDS011;5283;48.876;8.962;2023-10-19T06:53:32;12.53;;;9.70;;
10471;SDS011;5283;48.876;8.962;2023-10-19T06:55:59;12.23;;;9.73;;
10471;SDS011;5283;48.876;8.962;2023-10-19T06:58:26;12.53;;;9.17;;
10471;SDS011;5283;48.876;8.962;2023-10-19T07:00:53;11.97;;;9.30;;
10471;SDS011;5283;48.876;8.962;2023-10-19T07:03:23;9.53;;;8.53;;
10471;SDS011;5283;48.876;8.962;2023-10-19T07:05:51;13.03;;;9.90;;
10471;SDS011;5283;48.876;8.962;2023-10-19T07:08:19;12.57;;;11.00;;
10471;SDS011;5283;48.876;8.962;2023-10-19T07:10:47;12.43;;;9.40;;
10471;SDS011;5283;48.876;8.962;2023-10-19T07:13:15;9.87;;;8.03;;
10471;SDS011;5283;48.876;8.962;2023-10-19T07:15:46;9.13;;;7.70;;
10471;SDS011;5283;48.876;8.962;2023-10-19T07:18:15;8.40;;;7.27;;
10471;SDS011;5283;48.876;8.962;2023-10-19T07:20:42;9.37;;;7.10;;
10471;SDS011;5283;48.876;8.962;2023-10-19T07:23:10;8.60;;;7.07;;
10471;SDS011;5283;48.876;8.962;2023-10-19T07:25:44;9.10;;;6.90;;
10471;SDS011;5283;48.876;8.962;2023-10-19T07:28:19;8.40;;;6.87;;
10471;SDS011;5283;48.876;8.962;2023-10-19T07:30:46;6.83;;;6.13;;
10471;SDS011;5283;48.876;8.962;2023-10-19T07:33:14;9.03;;;6.63;;
10471;SDS011;5283;48.876;8.962;2023-10-19T07:35:44;8.63;;;7.03;;
10471;SDS011;5283;48.876;8.962;2023-10-19T07:38:18;8.97;;;6.23;;
10471;SDS011;5283;48.876;8.962;2023-10-19T07:40:47;7.63;;;6.40;;
10471;SDS011;5283;48.876;8.962;2023-10-19T07:43:15;7.47;;;6.07;;
10471;SDS011;5283;48.876;8.962;2023-10-19T07:45:42;7.00;;;6.30;;
10471;SDS011;5283;48.876;8.962;2023-10-19T07:48:09;8.73;;;6.27;;
10471;SDS011;5283;48.876;8.962;2023-10-19T07:50:39;7.10;;;6.30;;
10471;SDS011;5283;48.876;8.962;2023-10-19T07:53:09;9.27;;;6.23;;
10471;SDS011;5283;48.876;8.962;2023-10-19T07:55:36;6.30;;;5.70;;
10471;SDS011;5283;48.876;8.962;2023-10-19T07:58:05;7.20;;;5.77;;
10471;SDS011;5283;48.876;8.962;2023-10-19T08:00:34;5.67;;;5.17;;
10471;SDS011;5283;48.876;8.962;2023-10-19T08:03:02;7.40;;;5.90;;
10471;SDS011;5283;48.876;8.962;2023-10-19T08:05:30;5.30;;;4.80;;
10471;SDS011;5283;48.876;8.962;2023-10-19T08:07:58;10.53;;;6.63;;
10471;SDS011;5283;48.876;8.962;2023-10-19T08:10:27;11.27;;;7.37;;
10471;SDS011;5283;48.876;8.962;2023-10-19T08:12:54;6.33;;;5.17;;
10471;SDS011;5283;48.876;8.962;2023-10-19T08:15:21;6.07;;;4.77;;
10471;SDS011;5283;48.876;8.962;2023-10-19T08:17:49;5.83;;;4.90;;
10471;SDS011;5283;48.876;8.962;2023-10-19T08:20:17;5.50;;;4.23;;
10471;SDS011;5283;48.876;8.962;2023-10-19T08:22:53;4.93;;;3.93;;
10471;SDS011;5283;48.876;8.962;2023-10-19T08:25:23;4.90;;;4.10;;
10471;SDS011;5283;48.876;8.962;2023-10-19T08:27:59;4.17;;;3.80;;
10471;SDS011;5283;48.876;8.962;2023-10-19T08:30:25;4.87;;;4.20;;
10471;SDS011;5283;48.876;8.962;2023-10-19T08:32:53;6.97;;;3.70;;
10471;SDS011;5283;48.876;8.962;2023-10-19T08:35:20;3.30;;;3.10;;
10471;SDS011;5283;48.876;8.962;2023-10-19T08:37:54;4.73;;;2.97;;
10471;SDS011;5283;48.876;8.962;2023-10-19T08:40:25;4.90;;;3.00;;
10471;SDS011;5283;48.876;8.962;2023-10-19T08:42:57;3.50;;;2.43;;
10471;SDS011;5283;48.876;8.962;2023-10-19T08:45:23;3.80;;;2.80;;
10471;SDS011;5283;48.876;8.962;2023-10-19T08:47:54;3.47;;;3.10;;
10471;SDS011;5283;48.876;8.962;2023-10-19T08:50:26;5.30;;;3.30;;
10471;SDS011;5283;48.876;8.962;2023-10-19T08:52:56;3.57;;;3.20;;
10471;SDS011;5283;48.876;8.962;2023-10-19T08:55:24;3.40;;;3.10;;
10471;SDS011;5283;48.876;8.962;2023-10-19T08:57:58;2.73;;;2.50;;
10471;SDS011;5283;48.876;8.962;2023-10-19T09:00:25;4.43;;;2.90;;
10471;SDS011;5283;48.876;8.962;2023-10-19T09:02:53;2.50;;;2.30;;
10471;SDS011;5283;48.876;8.962;2023-10-19T09:05:20;3.77;;;2.47;;
10471;SDS011;5283;48.876;8.962;2023-10-19T09:07:52;3.63;;;2.30;;
10471;SDS011;5283;48.876;8.962;2023-10-19T09:10:22;2.60;;;2.40;;
10471;SDS011;5283;48.876;8.962;2023-10-19T09:13:02;3.90;;;2.50;;
10471;SDS011;5283;48.876;8.962;2023-10-19T09:15:30;2.90;;;2.37;;
10471;SDS011;5283;48.876;8.962;2023-10-19T09:18:17;3.57;;;2.50;;
10471;SDS011;5283;48.876;8.962;2023-10-19T09:20:45;2.57;;;2.37;;
10471;SDS011;5283;48.876;8.962;2023-10-19T09:23:23;4.53;;;2.23;;
10471;SDS011;5283;48.876;8.962;2023-10-19T09:25:51;4.07;;;2.60;;
10471;SDS011;5283;48.876;8.962;2023-10-19T09:28:21;3.70;;;2.53;;
10471;SDS011;5283;48.876;8.962;2023-10-19T09:30:50;2.23;;;2.10;;
10471;SDS011;5283;48.876;8.962;2023-10-19T09:33:18;2.70;;;2.50;;
10471;SDS011;5283;48.876;8.962;2023-10-19T09:35:48;4.50;;;2.80;;
10471;SDS011;5283;48.876;8.962;2023-10-19T09:38:16;2.77;;;1.83;;
10471;SDS011;5283;48.876;8.962;2023-10-19T09:40:48;2.80;;;2.47;;
10471;SDS011;5283;48.876;8.962;2023-10-19T09:43:16;2.20;;;2.10;;
10471;SDS011;5283;48.876;8.962;2023-10-19T09:45:52;2.33;;;2.20;;
10471;SDS011;5283;48.876;8.962;2023-10-19T09:48:22;3.03;;;2.00;;
10471;SDS011;5283;48.876;8.962;2023-10-19T09:50:53;2.13;;;1.90;;
10471;SDS011;5283;48.876;8.962;2023-10-19T09:53:22;1.83;;;1.70;;
10471;SDS011;5283;48.876;8.962;2023-10-19T09:55:54;3.80;;;2.20;;
10471;SDS011;5283;48.876;8.962;2023-10-19T09:58:40;2.93;;;1.80;;
10471;SDS011;5283;48.876;8.962;2023-10-19T10:01:12;5.13;;;1.60;;
10471;SDS011;5283;48.876;8.962;2023-10-19T10:06:10;2.73;;;1.90;;
10471;SDS011;5283;48.876;8.962;2023-10-19T10:08:42;1.20;;;1.20;;
10471;SDS011;5283;48.876;8.962;2023-10-19T10:11:13;2.13;;;1.73;;
10471;SDS011;5283;48.876;8.962;2023-10-19T10:13:43;1.97;;;1.07;;
10471;SDS011;5283;48.876;8.962;2023-10-19T10:16:22;1.90;;;1.50;;
10471;SDS011;5283;48.876;8.962;2023-10-19T10:18:50;1.73;;;1.63;;
10471;SDS011;5283;48.876;8.962;2023-10-19T10:21:21;2.37;;;1.50;;
10471;SDS011;5283;48.876;8.962;2023-10-19T10:23:57;2.37;;;1.60;;
10471;SDS011;5283;48.876;8.962;2023-10-19T10:26:27;1.97;;;1.77;;
10471;SDS011;5283;48.876;8.962;2023-10-19T10:29:13;2.23;;;1.70;;
10471;SDS011;5283;48.876;8.962;2023-10-19T10:31:49;2.13;;;1.93;;
10471;SDS011;5283;48.876;8.962;2023-10-19T10:37:09;4.23;;;2.50;;
10471;SDS011;5283;48.876;8.962;2023-10-19T10:39:38;2.23;;;2.00;;
10471;SDS011;5283;48.876;8.962;2023-10-19T10:42:07;2.40;;;2.00;;
10471;SDS011;5283;48.876;8.962;2023-10-19T10:49:52;2.10;;;2.00;;
10471;SDS011;5283;48.876;8.962;2023-10-19T10:52:24;2.13;;;1.80;;
10471;SDS011;5283;48.876;8.962;2023-10-19T10:54:58;2.00;;;1.90;;
10471;SDS011;5283;48.876;8.962;2023-10-19T10:57:33;2.63;;;1.90;;
10471;SDS011;5283;48.876;8.962;2023-10-19T11:00:01;3.27;;;2.03;;
10471;SDS011;5283;48.876;8.962;2023-10-19T11:02:30;2.43;;;2.13;;
10471;SDS011;5283;48.876;8.962;2023-10-19T11:04:56;2.20;;;2.10;;
10471;SDS011;5283;48.876;8.962;2023-10-19T11:07:24;2.13;;;1.93;;
10471;SDS011;5283;48.876;8.962;2023-10-19T11:09:51;2.20;;;2.00;;
10471;SDS011;5283;48.876;8.962;2023-10-19T11:12:19;3.43;;;2.00;;
10471;SDS011;5283;48.876;8.962;2023-10-19T11:14:55;1.83;;;1.73;;
10471;SDS011;5283;48.876;8.962;2023-10-19T11:17:27;2.27;;;1.93;;
10471;SDS011;5283;48.876;8.962;2023-10-19T11:19:58;2.00;;;1.80;;
10471;SDS011;5283;48.876;8.962;2023-10-19T11:22:26;4.73;;;2.23;;
10471;SDS011;5283;48.876;8.962;2023-10-19T11:24:53;2.47;;;2.23;;
10471;SDS011;5283;48.876;8.962;2023-10-19T11:27:24;3.10;;;2.30;;
10471;SDS011;5283;48.876;8.962;2023-10-19T11:29:56;2.60;;;2.20;;
10471;SDS011;5283;48.876;8.962;2023-10-19T11:32:26;4.37;;;2.70;;
10471;SDS011;5283;48.876;8.962;2023-10-19T11:35:04;2.60;;;2.40;;
10471;SDS011;5283;48.876;8.962;2023-10-19T11:37:46;4.37;;;3.10;;
10471;SDS011;5283;48.876;8.962;2023-10-19T11:40:17;4.77;;;3.10;;
10471;SDS011;5283;48.876;8.962;2023-10-19T11:42:45;6.43;;;3.80;;
10471;SDS011;5283;48.876;8.962;2023-10-19T11:45:13;7.23;;;4.90;;
10471;SDS011;5283;48.876;8.962;2023-10-19T11:47:40;5.93;;;4.13;;
10471;SDS011;5283;48.876;8.962;2023-10-19T11:50:07;3.93;;;3.40;;
10471;SDS011;5283;48.876;8.962;2023-10-19T11:52:34;5.67;;;3.43;;
10471;SDS011;5283;48.876;8.962;2023-10-19T11:55:00;4.03;;;3.13;;
10471;SDS011;5283;48.876;8.962;2023-10-19T11:57:28;7.47;;;3.90;;
10471;SDS011;5283;48.876;8.962;2023-10-19T11:59:55;7.50;;;4.20;;
10471;SDS011;5283;48.876;8.962;2023-10-19T12:02:23;5.37;;;2.90;;
10471;SDS011;5283;48.876;8.962;2023-10-19T12:04:50;4.70;;;3.07;;
10471;SDS011;5283;48.876;8.962;2023-10-19T12:07:17;5.70;;;2.80;;
10471;SDS011;5283;48.876;8.962;2023-10-19T12:09:44;6.83;;;3.27;;
10471;SDS011;5283;48.876;8.962;2023-10-19T12:12:11;3.30;;;3.00;;
10471;SDS011;5283;48.876;8.962;2023-10-19T12:14:39;4.67;;;3.20;;
10471;SDS011;5283;48.876;8.962;2023-10-19T12:17:06;3.20;;;2.90;;
10471;SDS011;5283;48.876;8.962;2023-10-19T12:19:33;5.63;;;4.00;;
10471;SDS011;5283;48.876;8.962;2023-10-19T12:22:01;10.60;;;9.43;;
10471;SDS011;5283;48.876;8.962;2023-10-19T12:24:29;7.90;;;6.43;;
10471;SDS011;5283;48.876;8.962;2023-10-19T12:26:55;4.93;;;4.43;;
10471;SDS011;5283;48.876;8.962;2023-10-19T12:29:22;6.80;;;4.57;;
10471;SDS011;5283;48.876;8.962;2023-10-19T12:31:49;11.13;;;7.40;;
10471;SDS011;5283;48.876;8.962;2023-10-19T12:34:16;4.13;;;3.00;;
10471;SDS011;5283;48.876;8.962;2023-10-19T12:36:42;4.27;;;3.57;;
10471;SDS011;5283;48.876;8.962;2023-10-19T12:39:12;4.07;;;3.70;;
10471;SDS011;5283;48.876;8.962;2023-10-19T12:41:59;4.27;;;3.70;;
10471;SDS011;5283;48.876;8.962;2023-10-19T12:44:27;6.00;;;4.10;;
10471;SDS011;5283;48.876;8.962;2023-10-19T12:47:05;10.03;;;7.57;;
10471;SDS011;5283;48.876;8.962;2023-10-19T12:49:42;8.60;;;7.40;;
10471;SDS011;5283;48.876;8.962;2023-10-19T12:52:11;7.40;;;6.60;;
10471;SDS011;5283;48.876;8.962;2023-10-19T12:54:38;8.97;;;8.17;;
10471;SDS011;5283;48.876;8.962;2023-10-19T12:57:05;7.97;;;5.47;;
10471;SDS011;5283;48.876;8.962;2023-10-19T12:59:36;5.13;;;4.57;;
10471;SDS011;5283;48.876;8.962;2023-10-19T13:02:06;5.33;;;4.67;;
10471;SDS011;5283;48.876;8.962;2023-10-19T13:04:34;6.87;;;5.27;;
10471;SDS011;5283;48.876;8.962;2023-10-19T13:07:02;5.50;;;5.00;;
10471;SDS011;5283;48.876;8.962;2023-10-19T13:09:30;7.07;;;5.50;;
10471;SDS011;5283;48.876;8.962;2023-10-19T13:11:57;7.93;;;6.20;;
10471;SDS011;5283;48.876;8.962;2023-10-19T13:14:26;9.13;;;6.60;;
10471;SDS011;5283;48.876;8.962;2023-10-19T13:16:54;8.87;;;6.13;;
10471;SDS011;5283;48.876;8.962;2023-10-19T13:19:21;20.37;;;10.03;;
10471;SDS011;5283;48.876;8.962;2023-10-19T13:21:51;25.17;;;11.27;;
10471;SDS011;5283;48.876;8.962;2023-10-19T13:24:18;10.70;;;9.30;;
10471;SDS011;5283;48.876;8.962;2023-10-19T13:26:48;10.00;;;7.10;;
10471;SDS011;5283;48.876;8.962;2023-10-19T13:29:15;7.70;;;6.57;;
10471;SDS011;5283;48.876;8.962;2023-10-19T13:31:44;6.13;;;5.23;;
10471;SDS011;5283;48.876;8.962;2023-10-19T13:34:15;7.17;;;4.73;;
10471;SDS011;5283;48.876;8.962;2023-10-19T13:36:43;7.43;;;4.83;;
10471;SDS011;5283;48.876;8.962;2023-10-19T13:39:12;6.17;;;4.40;;
10471;SDS011;5283;48.876;8.962;2023-10-19T13:41:45;6.13;;;4.70;;
10471;SDS011;5283;48.876;8.962;2023-10-19T13:44:11;5.60;;;3.63;;
10471;SDS011;5283;48.876;8.962;2023-10-19T13:46:38;6.20;;;4.17;;
10471;SDS011;5283;48.876;8.962;2023-10-19T13:49:05;5.30;;;4.00;;
10471;SDS011;5283;48.876;8.962;2023-10-19T13:51:32;4.83;;;3.93;;
10471;SDS011;5283;48.876;8.962;2023-10-19T13:53:59;4.20;;;3.53;;
10471;SDS011;5283;48.876;8.962;2023-10-19T13:56:26;6.50;;;3.80;;
10471;SDS011;5283;48.876;8.962;2023-10-19T13:58:53;4.47;;;3.70;;
10471;SDS011;5283;48.876;8.962;2023-10-19T14:01:20;7.63;;;4.60;;
10471;SDS011;5283;48.876;8.962;2023-10-19T14:03:53;12.50;;;5.03;;
10471;SDS011;5283;48.876;8.962;2023-10-19T14:06:23;12.00;;;6.63;;
10471;SDS011;5283;48.876;8.962;2023-10-19T14:08:51;8.77;;;6.50;;
10471;SDS011;5283;48.876;8.962;2023-10-19T14:11:18;6.70;;;5.03;;
10471;SDS011;5283;48.876;8.962;2023-10-19T14:13:44;6.70;;;4.67;;
10471;SDS011;5283;48.876;8.962;2023-10-19T14:16:11;6.90;;;4.43;;
10471;SDS011;5283;48.876;8.962;2023-10-19T14:18:38;6.47;;;5.30;;
10471;SDS011;5283;48.876;8.962;2023-10-19T14:21:14;6.60;;;4.80;;
10471;SDS011;5283;48.876;8.962;2023-10-19T14:23:42;7.73;;;5.57;;
10471;SDS011;5283;48.876;8.962;2023-10-19T14:26:10;16.73;;;11.40;;
10471;SDS011;5283;48.876;8.962;2023-10-19T14:28:38;13.30;;;9.27;;
10471;SDS011;5283;48.876;8.962;2023-10-19T14:31:04;6.93;;;5.03;;
10471;SDS011;5283;48.876;8.962;2023-10-19T14:33:33;5.97;;;4.97;;
10471;SDS011;5283;48.876;8.962;2023-10-19T14:36:02;5.57;;;4.47;;
10471;SDS011;5283;48.876;8.962;2023-10-19T14:38:30;5.30;;;4.80;;
10471;SDS011;5283;48.876;8.962;2023-10-19T14:40:56;5.37;;;4.20;;
10471;SDS011;5283;48.876;8.962;2023-10-19T14:43:24;4.93;;;3.10;;
10471;SDS011;5283;48.876;8.962;2023-10-19T14:45:55;5.17;;;3.80;;
10471;SDS011;5283;48.876;8.962;2023-10-19T14:48:25;4.80;;;4.30;;
10471;SDS011;5283;48.876;8.962;2023-10-19T14:50:55;9.47;;;5.70;;
10471;SDS011;5283;48.876;8.962;2023-10-19T14:53:23;8.10;;;7.30;;
10471;SDS011;5283;48.876;8.962;2023-10-19T14:55:50;9.50;;;7.50;;
10471;SDS011;5283;48.876;8.962;2023-10-19T14:58:17;8.33;;;6.43;;
10471;SDS011;5283;48.876;8.962;2023-10-19T15:00:44;8.77;;;6.90;;
10471;SDS011;5283;48.876;8.962;2023-10-19T15:03:13;8.13;;;6.67;;
10471;SDS011;5283;48.876;8.962;2023-10-19T15:05:40;7.40;;;6.63;;
10471;SDS011;5283;48.876;8.962;2023-10-19T15:08:08;14.30;;;11.83;;
10471;SDS011;5283;48.876;8.962;2023-10-19T15:10:39;8.50;;;7.63;;
10471;SDS011;5283;48.876;8.962;2023-10-19T15:13:08;7.73;;;6.47;;
10471;SDS011;5283;48.876;8.962;2023-10-19T15:15:35;10.37;;;6.93;;
10471;SDS011;5283;48.876;8.962;2023-10-19T15:18:02;9.03;;;7.43;;
10471;SDS011;5283;48.876;8.962;2023-10-19T15:20:30;8.37;;;7.40;;